sensor_id;sensor_type;location;lat;lon;timestamp;pressure;altitude;pressure_sealevel;temperature
14666;BMP280;7420;53.574;10.040;2023-06-26T00:01:30;54245.63;;;-136.87
14666;BMP280;7420;53.574;10.040;2023-06-26T00:03:57;54247.66;;;-136.87
14666;BMP280;7420;53.574;10.040;2023-06-26T00:06:24;54245.63;;;-136.87
14666;BMP280;7420;53.574;10.040;2023-06-26T00:08:51;54245.63;;;-136.87
14666;BMP280;7420;53.574;10.040;2023-06-26T00:11:16;54243.59;;;-136.87
14666;BMP280;7420;53.574;10.040;2023-06-26T00:13:42;54245.63;;;-136.87
14666;BMP280;7420;53.574;10.040;2023-06-26T00:16:07;54245.63;;;-136.87
14666;BMP280;7420;53.574;10.040;2023-06-26T00:18:32;54247.66;;;-136.87
14666;BMP280;7420;53.574;10.040;2023-06-26T00:20:58;54243.59;;;-136.87
14666;BMP280;7420;53.574;10.040;2023-06-26T00:23:23;54241.53;;;-136.87
14666;BMP280;7420;53.574;10.040;2023-06-26T00:25:48;54247.66;;;-136.87
14666;BMP280;7420;53.574;10.040;2023-06-26T00:28:14;54245.63;;;-136.87
14666;BMP280;7420;53.574;10.040;2023-06-26T00:30:39;54241.53;;;-136.87
14666;BMP280;7420;53.574;10.040;2023-06-26T00:33:05;54245.63;;;-136.87
14666;BMP280;7420;53.574;10.040;2023-06-26T00:35:30;54243.59;;;-136.87
14666;BMP280;7420;53.574;10.040;2023-06-26T00:37:55;54243.59;;;-136.87
14666;BMP280;7420;53.574;10.040;2023-06-26T00:40:21;54241.53;;;-136.87
14666;BMP280;7420;53.574;10.040;2023-06-26T00:42:46;54243.59;;;-136.87
14666;BMP280;7420;53.574;10.040;2023-06-26T00:45:12;54243.59;;;-136.87
14666;BMP280;7420;53.574;10.040;2023-06-26T00:47:37;54245.63;;;-136.87
14666;BMP280;7420;53.574;10.040;2023-06-26T00:50:04;54245.63;;;-136.87
14666;BMP280;7420;53.574;10.040;2023-06-26T00:52:29;54249.72;;;-136.87
14666;BMP280;7420;53.574;10.040;2023-06-26T00:54:55;54245.63;;;-136.87
14666;BMP280;7420;53.574;10.040;2023-06-26T00:57:21;54243.59;;;-136.87
14666;BMP280;7420;53.574;10.040;2023-06-26T00:59:46;54247.66;;;-136.87
14666;BMP280;7420;53.574;10.040;2023-06-26T01:02:13;54245.63;;;-136.87
14666;BMP280;7420;53.574;10.040;2023-06-26T01:04:48;54241.53;;;-136.87
14666;BMP280;7420;53.574;10.040;2023-06-26T01:07:15;54243.59;;;-136.87
14666;BMP280;7420;53.574;10.040;2023-06-26T01:09:41;54245.63;;;-136.87
14666;BMP280;7420;53.574;10.040;2023-06-26T01:12:07;54247.66;;;-136.87
14666;BMP280;7420;53.574;10.040;2023-06-26T01:14:34;54249.72;;;-136.87
14666;BMP280;7420;53.574;10.040;2023-06-26T01:17:01;54245.63;;;-136.87
14666;BMP280;7420;53.574;10.040;2023-06-26T01:19:28;54245.63;;;-136.87
14666;BMP280;7420;53.574;10.040;2023-06-26T01:25:01;54245.63;;;-136.87
14666;BMP280;7420;53.574;10.040;2023-06-26T01:27:30;54245.63;;;-136.87
14666;BMP280;7420;53.574;10.040;2023-06-26T01:30:00;54243.59;;;-136.87
14666;BMP280;7420;53.574;10.040;2023-06-26T01:32:28;54247.66;;;-136.87
14666;BMP280;7420;53.574;10.040;2023-06-26T01:34:54;54245.63;;;-136.87
14666;BMP280;7420;53.574;10.040;2023-06-26T01:37:19;54245.63;;;-136.87
14666;BMP280;7420;53.574;10.040;2023-06-26T01:39:44;54245.63;;;-136.87
14666;BMP280;7420;53.574;10.040;2023-06-26T01:42:10;54243.59;;;-136.87
14666;BMP280;7420;53.574;10.040;2023-06-26T01:44:42;54247.66;;;-136.87
14666;BMP280;7420;53.574;10.040;2023-06-26T01:47:11;54245.63;;;-136.87
14666;BMP280;7420;53.574;10.040;2023-06-26T01:52:40;54245.63;;;-136.87
14666;BMP280;7420;53.574;10.040;2023-06-26T01:55:20;54245.63;;;-136.87
14666;BMP280;7420;53.574;10.040;2023-06-26T01:57:47;54245.63;;;-136.87
14666;BMP280;7420;53.574;10.040;2023-06-26T02:00:16;54243.59;;;-136.87
14666;BMP280;7420;53.574;10.040;2023-06-26T02:02:44;54245.63;;;-136.87
14666;BMP280;7420;53.574;10.040;2023-06-26T02:05:09;54245.63;;;-136.87
14666;BMP280;7420;53.574;10.040;2023-06-26T02:07:35;54245.63;;;-136.87
14666;BMP280;7420;53.574;10.040;2023-06-26T02:10:00;54243.59;;;-136.87
14666;BMP280;7420;53.574;10.040;2023-06-26T02:12:25;54241.53;;;-136.87
14666;BMP280;7420;53.574;10.040;2023-06-26T02:14:51;54241.53;;;-136.87
14666;BMP280;7420;53.574;10.040;2023-06-26T02:17:16;54245.63;;;-136.87
14666;BMP280;7420;53.574;10.040;2023-06-26T02:19:42;54245.63;;;-136.87
14666;BMP280;7420;53.574;10.040;2023-06-26T02:22:13;54243.59;;;-136.87
14666;BMP280;7420;53.574;10.040;2023-06-26T02:24:38;54239.50;;;-136.87
14666;BMP280;7420;53.574;10.040;2023-06-26T02:27:04;54241.53;;;-136.87
14666;BMP280;7420;53.574;10.040;2023-06-26T02:29:29;54241.53;;;-136.87
14666;BMP280;7420;53.574;10.040;2023-06-26T02:31:54;54245.63;;;-136.87
14666;BMP280;7420;53.574;10.040;2023-06-26T02:34:20;54241.53;;;-136.87
14666;BMP280;7420;53.574;10.040;2023-06-26T02:36:45;54245.63;;;-136.87
14666;BMP280;7420;53.574;10.040;2023-06-26T02:39:10;54241.53;;;-136.87
14666;BMP280;7420;53.574;10.040;2023-06-26T02:41:36;54245.63;;;-136.87
14666;BMP280;7420;53.574;10.040;2023-06-26T02:44:04;54243.59;;;-136.87
14666;BMP280;7420;53.574;10.040;2023-06-26T02:46:30;54243.59;;;-136.87
14666;BMP280;7420;53.574;10.040;2023-06-26T02:48:55;54243.59;;;-136.87
14666;BMP280;7420;53.574;10.040;2023-06-26T02:51:20;54239.50;;;-136.87
14666;BMP280;7420;53.574;10.040;2023-06-26T02:53:46;54241.53;;;-136.87
14666;BMP280;7420;53.574;10.040;2023-06-26T02:56:11;54239.50;;;-136.87
14666;BMP280;7420;53.574;10.040;2023-06-26T02:58:37;54247.66;;;-136.87
14666;BMP280;7420;53.574;10.040;2023-06-26T03:01:02;54241.53;;;-136.87
14666;BMP280;7420;53.574;10.040;2023-06-26T03:03:27;54241.53;;;-136.87
14666;BMP280;7420;53.574;10.040;2023-06-26T03:05:53;54245.63;;;-136.87
14666;BMP280;7420;53.574;10.040;2023-06-26T03:08:18;54243.59;;;-136.87
14666;BMP280;7420;53.574;10.040;2023-06-26T03:10:43;54241.53;;;-136.87
14666;BMP280;7420;53.574;10.040;2023-06-26T03:13:09;54243.59;;;-136.87
14666;BMP280;7420;53.574;10.040;2023-06-26T03:15:34;54245.63;;;-136.87
14666;BMP280;7420;53.574;10.040;2023-06-26T03:18:00;54241.53;;;-136.87
14666;BMP280;7420;53.574;10.040;2023-06-26T03:20:25;54239.50;;;-136.87
14666;BMP280;7420;53.574;10.040;2023-06-26T03:22:50;54239.50;;;-136.87
14666;BMP280;7420;53.574;10.040;2023-06-26T03:25:16;54241.53;;;-136.87
14666;BMP280;7420;53.574;10.040;2023-06-26T03:27:41;54243.59;;;-136.87
14666;BMP280;7420;53.574;10.040;2023-06-26T03:30:07;54237.44;;;-136.87
14666;BMP280;7420;53.574;10.040;2023-06-26T03:32:32;54239.50;;;-136.87
14666;BMP280;7420;53.574;10.040;2023-06-26T03:34:58;54241.53;;;-136.87
14666;BMP280;7420;53.574;10.040;2023-06-26T03:37:23;54241.53;;;-136.87
14666;BMP280;7420;53.574;10.040;2023-06-26T03:39:48;54245.63;;;-136.87
14666;BMP280;7420;53.574;10.040;2023-06-26T03:42:14;54243.59;;;-136.87
14666;BMP280;7420;53.574;10.040;2023-06-26T03:44:39;54239.50;;;-136.87
14666;BMP280;7420;53.574;10.040;2023-06-26T03:47:04;54241.53;;;-136.87
14666;BMP280;7420;53.574;10.040;2023-06-26T03:49:30;54239.50;;;-136.87
14666;BMP280;7420;53.574;10.040;2023-06-26T03:51:55;54241.53;;;-136.87
14666;BMP280;7420;53.574;10.040;2023-06-26T03:54:20;54241.53;;;-136.87
14666;BMP280;7420;53.574;10.040;2023-06-26T03:56:46;54243.59;;;-136.87
14666;BMP280;7420;53.574;10.040;2023-06-26T03:59:11;54237.44;;;-136.87
14666;BMP280;7420;53.574;10.040;2023-06-26T04:01:37;54241.53;;;-136.87
14666;BMP280;7420;53.574;10.040;2023-06-26T04:04:03;54239.50;;;-136.87
14666;BMP280;7420;53.574;10.040;2023-06-26T04:06:28;54241.53;;;-136.87
14666;BMP280;7420;53.574;10.040;2023-06-26T04:08:56;54237.44;;;-136.87
14666;BMP280;7420;53.574;10.040;2023-06-26T04:11:22;54237.44;;;-136.87
14666;BMP280;7420;53.574;10.040;2023-06-26T04:13:47;54241.53;;;-136.87
14666;BMP280;7420;53.574;10.040;2023-06-26T04:16:12;54239.50;;;-136.87
14666;BMP280;7420;53.574;10.040;2023-06-26T04:18:38;54237.44;;;-136.87
14666;BMP280;7420;53.574;10.040;2023-06-26T04:23:32;54243.59;;;-136.87
14666;BMP280;7420;53.574;10.040;2023-06-26T04:25:57;54239.50;;;-136.87
14666;BMP280;7420;53.574;10.040;2023-06-26T04:28:23;54245.63;;;-136.87
14666;BMP280;7420;53.574;10.040;2023-06-26T04:30:49;54243.59;;;-136.87
14666;BMP280;7420;53.574;10.040;2023-06-26T04:33:14;54243.59;;;-136.87
14666;BMP280;7420;53.574;10.040;2023-06-26T04:35:40;54241.53;;;-136.87
14666;BMP280;7420;53.574;10.040;2023-06-26T04:38:05;54241.53;;;-136.87
14666;BMP280;7420;53.574;10.040;2023-06-26T04:40:31;54237.44;;;-136.87
14666;BMP280;7420;53.574;10.040;2023-06-26T04:42:56;54243.59;;;-136.87
14666;BMP280;7420;53.574;10.040;2023-06-26T04:45:21;54243.59;;;-136.87
14666;BMP280;7420;53.574;10.040;2023-06-26T04:47:47;54245.63;;;-136.87
14666;BMP280;7420;53.574;10.040;2023-06-26T04:50:12;54245.63;;;-136.87
14666;BMP280;7420;53.574;10.040;2023-06-26T04:52:38;54243.59;;;-136.87
14666;BMP280;7420;53.574;10.040;2023-06-26T04:55:03;54245.63;;;-136.87
14666;BMP280;7420;53.574;10.040;2023-06-26T04:57:29;54245.63;;;-136.87
14666;BMP280;7420;53.574;10.040;2023-06-26T04:59:54;54247.66;;;-136.87
14666;BMP280;7420;53.574;10.040;2023-06-26T05:02:19;54243.59;;;-136.87
14666;BMP280;7420;53.574;10.040;2023-06-26T05:04:45;54245.63;;;-136.87
14666;BMP280;7420;53.574;10.040;2023-06-26T05:07:11;54241.53;;;-136.87
14666;BMP280;7420;53.574;10.040;2023-06-26T05:09:36;54241.53;;;-136.87
14666;BMP280;7420;53.574;10.040;2023-06-26T05:12:02;54241.53;;;-136.87
14666;BMP280;7420;53.574;10.040;2023-06-26T05:14:28;54241.53;;;-136.87
14666;BMP280;7420;53.574;10.040;2023-06-26T05:16:53;54243.59;;;-136.87
14666;BMP280;7420;53.574;10.040;2023-06-26T05:19:18;54245.63;;;-136.87
14666;BMP280;7420;53.574;10.040;2023-06-26T05:21:47;54243.59;;;-136.87
14666;BMP280;7420;53.574;10.040;2023-06-26T05:24:13;54245.63;;;-136.87
14666;BMP280;7420;53.574;10.040;2023-06-26T05:26:40;54241.53;;;-136.87
14666;BMP280;7420;53.574;10.040;2023-06-26T05:29:06;54241.53;;;-136.87
14666;BMP280;7420;53.574;10.040;2023-06-26T05:31:33;54245.63;;;-136.87
14666;BMP280;7420;53.574;10.040;2023-06-26T05:34:02;54245.63;;;-136.87
14666;BMP280;7420;53.574;10.040;2023-06-26T05:36:29;54241.53;;;-136.87
14666;BMP280;7420;53.574;10.040;2023-06-26T05:38:58;54243.59;;;-136.87
14666;BMP280;7420;53.574;10.040;2023-06-26T05:41:24;54245.63;;;-136.87
14666;BMP280;7420;53.574;10.040;2023-06-26T05:43:49;54241.53;;;-136.87
14666;BMP280;7420;53.574;10.040;2023-06-26T05:46:14;54243.59;;;-136.87
14666;BMP280;7420;53.574;10.040;2023-06-26T05:48:40;54245.63;;;-136.87
14666;BMP280;7420;53.574;10.040;2023-06-26T05:51:06;54241.53;;;-136.87
14666;BMP280;7420;53.574;10.040;2023-06-26T05:53:31;54241.53;;;-136.87
14666;BMP280;7420;53.574;10.040;2023-06-26T05:55:57;54241.53;;;-136.87
14666;BMP280;7420;53.574;10.040;2023-06-26T05:58:26;54243.59;;;-136.87
14666;BMP280;7420;53.574;10.040;2023-06-26T06:00:52;54243.59;;;-136.87
14666;BMP280;7420;53.574;10.040;2023-06-26T06:03:18;54243.59;;;-136.87
14666;BMP280;7420;53.574;10.040;2023-06-26T06:05:43;54241.53;;;-136.87
14666;BMP280;7420;53.574;10.040;2023-06-26T06:08:09;54239.50;;;-136.87
14666;BMP280;7420;53.574;10.040;2023-06-26T06:10:34;54245.63;;;-136.87
14666;BMP280;7420;53.574;10.040;2023-06-26T06:13:00;54235.41;;;-136.87
14666;BMP280;7420;53.574;10.040;2023-06-26T06:15:25;54237.44;;;-136.87
14666;BMP280;7420;53.574;10.040;2023-06-26T06:17:50;54243.59;;;-136.87
14666;BMP280;7420;53.574;10.040;2023-06-26T06:20:17;54241.53;;;-136.87
14666;BMP280;7420;53.574;10.040;2023-06-26T06:22:44;54239.50;;;-136.87
14666;BMP280;7420;53.574;10.040;2023-06-26T06:25:10;54237.44;;;-136.87
14666;BMP280;7420;53.574;10.040;2023-06-26T06:27:35;54237.44;;;-136.87
14666;BMP280;7420;53.574;10.040;2023-06-26T06:30:00;54237.44;;;-136.87
14666;BMP280;7420;53.574;10.040;2023-06-26T06:32:26;54243.59;;;-136.87
14666;BMP280;7420;53.574;10.040;2023-06-26T06:34:51;54233.38;;;-136.87
14666;BMP280;7420;53.574;10.040;2023-06-26T06:37:16;54237.44;;;-136.87
14666;BMP280;7420;53.574;10.040;2023-06-26T06:39:42;54241.53;;;-136.87
14666;BMP280;7420;53.574;10.040;2023-06-26T06:42:07;54237.44;;;-136.87
14666;BMP280;7420;53.574;10.040;2023-06-26T06:44:33;54237.44;;;-136.87
14666;BMP280;7420;53.574;10.040;2023-06-26T06:46:58;54235.41;;;-136.87
14666;BMP280;7420;53.574;10.040;2023-06-26T06:49:24;54233.38;;;-136.87
14666;BMP280;7420;53.574;10.040;2023-06-26T06:51:49;54237.44;;;-136.87
14666;BMP280;7420;53.574;10.040;2023-06-26T06:54:17;54235.41;;;-136.87
14666;BMP280;7420;53.574;10.040;2023-06-26T06:56:43;54237.44;;;-136.87
14666;BMP280;7420;53.574;10.040;2023-06-26T06:59:09;54231.31;;;-136.87
14666;BMP280;7420;53.574;10.040;2023-06-26T07:01:34;54235.41;;;-136.87
14666;BMP280;7420;53.574;10.040;2023-06-26T07:03:59;54229.28;;;-136.87
14666;BMP280;7420;53.574;10.040;2023-06-26T07:06:25;54233.38;;;-136.87
14666;BMP280;7420;53.574;10.040;2023-06-26T07:08:50;54229.28;;;-136.87
14666;BMP280;7420;53.574;10.040;2023-06-26T07:11:16;54229.28;;;-136.87
14666;BMP280;7420;53.574;10.040;2023-06-26T07:13:41;54225.19;;;-136.87
14666;BMP280;7420;53.574;10.040;2023-06-26T07:16:07;54227.25;;;-136.87
14666;BMP280;7420;53.574;10.040;2023-06-26T07:18:32;54225.19;;;-136.87
14666;BMP280;7420;53.574;10.040;2023-06-26T07:20:58;54225.19;;;-136.87
14666;BMP280;7420;53.574;10.040;2023-06-26T07:23:23;54231.31;;;-136.87
14666;BMP280;7420;53.574;10.040;2023-06-26T07:25:48;54229.28;;;-136.87
14666;BMP280;7420;53.574;10.040;2023-06-26T07:28:14;54221.13;;;-136.87
14666;BMP280;7420;53.574;10.040;2023-06-26T07:33:05;54225.19;;;-136.87
14666;BMP280;7420;53.574;10.040;2023-06-26T07:35:30;54225.19;;;-136.87
14666;BMP280;7420;53.574;10.040;2023-06-26T07:37:55;54225.19;;;-136.87
14666;BMP280;7420;53.574;10.040;2023-06-26T07:40:21;54223.16;;;-136.87
14666;BMP280;7420;53.574;10.040;2023-06-26T07:42:46;54221.13;;;-136.87
14666;BMP280;7420;53.574;10.040;2023-06-26T07:45:12;54217.03;;;-136.87
14666;BMP280;7420;53.574;10.040;2023-06-26T07:47:38;54225.19;;;-136.87
14666;BMP280;7420;53.574;10.040;2023-06-26T07:50:04;54219.06;;;-136.87
14666;BMP280;7420;53.574;10.040;2023-06-26T07:52:29;54219.06;;;-136.87
14666;BMP280;7420;53.574;10.040;2023-06-26T07:54:58;54217.03;;;-136.87
14666;BMP280;7420;53.574;10.040;2023-06-26T07:57:23;54214.97;;;-136.87
14666;BMP280;7420;53.574;10.040;2023-06-26T07:59:49;54212.94;;;-136.87
14666;BMP280;7420;53.574;10.040;2023-06-26T08:05:00;54217.03;;;-136.87
14666;BMP280;7420;53.574;10.040;2023-06-26T08:07:26;54219.06;;;-136.87
14666;BMP280;7420;53.574;10.040;2023-06-26T08:09:51;54214.97;;;-136.87
14666;BMP280;7420;53.574;10.040;2023-06-26T08:12:16;54210.91;;;-136.87
14666;BMP280;7420;53.574;10.040;2023-06-26T08:14:41;54212.94;;;-136.87
14666;BMP280;7420;53.574;10.040;2023-06-26T08:17:07;54208.84;;;-136.87
14666;BMP280;7420;53.574;10.040;2023-06-26T08:19:32;54212.94;;;-136.87
14666;BMP280;7420;53.574;10.040;2023-06-26T08:21:57;54217.03;;;-136.87
14666;BMP280;7420;53.574;10.040;2023-06-26T08:24:23;54217.03;;;-136.87
14666;BMP280;7420;53.574;10.040;2023-06-26T08:26:48;54212.94;;;-136.87
14666;BMP280;7420;53.574;10.040;2023-06-26T08:29:14;54212.94;;;-136.87
14666;BMP280;7420;53.574;10.040;2023-06-26T08:31:40;54212.94;;;-136.87
14666;BMP280;7420;53.574;10.040;2023-06-26T08:34:06;54208.84;;;-136.87
14666;BMP280;7420;53.574;10.040;2023-06-26T08:36:31;54210.91;;;-136.87
14666;BMP280;7420;53.574;10.040;2023-06-26T08:38:57;54210.91;;;-136.87
14666;BMP280;7420;53.574;10.040;2023-06-26T08:41:23;54210.91;;;-136.87
14666;BMP280;7420;53.574;10.040;2023-06-26T08:43:48;54204.78;;;-136.87
14666;BMP280;7420;53.574;10.040;2023-06-26T08:46:16;54208.84;;;-136.87
14666;BMP280;7420;53.574;10.040;2023-06-26T08:48:54;54202.72;;;-136.87
14666;BMP280;7420;53.574;10.040;2023-06-26T08:51:22;54208.84;;;-136.87
14666;BMP280;7420;53.574;10.040;2023-06-26T08:56:20;54210.91;;;-136.87
14666;BMP280;7420;53.574;10.040;2023-06-26T08:58:47;54208.84;;;-136.87
14666;BMP280;7420;53.574;10.040;2023-06-26T09:01:13;54208.84;;;-136.87
14666;BMP280;7420;53.574;10.040;2023-06-26T09:03:38;54208.84;;;-136.87
14666;BMP280;7420;53.574;10.040;2023-06-26T09:06:04;54204.78;;;-136.87
14666;BMP280;7420;53.574;10.040;2023-06-26T09:08:29;54208.84;;;-136.87
14666;BMP280;7420;53.574;10.040;2023-06-26T09:10:55;54208.84;;;-136.87
14666;BMP280;7420;53.574;10.040;2023-06-26T09:13:20;54206.81;;;-136.87
14666;BMP280;7420;53.574;10.040;2023-06-26T09:15:46;54210.91;;;-136.87
14666;BMP280;7420;53.574;10.040;2023-06-26T09:18:13;54204.78;;;-136.87
14666;BMP280;7420;53.574;10.040;2023-06-26T09:20:38;54206.81;;;-136.87
14666;BMP280;7420;53.574;10.040;2023-06-26T09:23:04;54204.78;;;-136.87
14666;BMP280;7420;53.574;10.040;2023-06-26T09:25:30;54206.81;;;-136.87
14666;BMP280;7420;53.574;10.040;2023-06-26T09:27:55;54200.69;;;-136.87
14666;BMP280;7420;53.574;10.040;2023-06-26T09:30:21;54208.84;;;-136.87
14666;BMP280;7420;53.574;10.040;2023-06-26T09:32:47;54206.81;;;-136.87
14666;BMP280;7420;53.574;10.040;2023-06-26T09:35:13;54212.94;;;-136.87
14666;BMP280;7420;53.574;10.040;2023-06-26T09:37:38;54217.03;;;-136.87
14666;BMP280;7420;53.574;10.040;2023-06-26T09:40:04;54210.91;;;-136.87
14666;BMP280;7420;53.574;10.040;2023-06-26T09:42:33;54210.91;;;-136.87
14666;BMP280;7420;53.574;10.040;2023-06-26T09:44:59;54212.94;;;-136.87
14666;BMP280;7420;53.574;10.040;2023-06-26T09:47:24;54217.03;;;-136.87
14666;BMP280;7420;53.574;10.040;2023-06-26T09:49:52;54217.03;;;-136.87
14666;BMP280;7420;53.574;10.040;2023-06-26T09:52:20;54217.03;;;-136.87
14666;BMP280;7420;53.574;10.040;2023-06-26T09:54:45;54221.13;;;-136.87
14666;BMP280;7420;53.574;10.040;2023-06-26T09:57:13;54221.13;;;-136.87
14666;BMP280;7420;53.574;10.040;2023-06-26T09:59:42;54221.13;;;-136.87
14666;BMP280;7420;53.574;10.040;2023-06-26T10:02:08;54225.19;;;-136.87
14666;BMP280;7420;53.574;10.040;2023-06-26T10:04:36;54223.16;;;-136.87
14666;BMP280;7420;53.574;10.040;2023-06-26T10:07:05;54221.13;;;-136.87
14666;BMP280;7420;53.574;10.040;2023-06-26T10:09:31;54221.13;;;-136.87
14666;BMP280;7420;53.574;10.040;2023-06-26T10:12:06;54227.25;;;-136.87
14666;BMP280;7420;53.574;10.040;2023-06-26T10:14:35;54229.28;;;-136.87
14666;BMP280;7420;53.574;10.040;2023-06-26T10:17:03;54231.31;;;-136.87
14666;BMP280;7420;53.574;10.040;2023-06-26T10:19:31;54233.38;;;-136.87
14666;BMP280;7420;53.574;10.040;2023-06-26T10:21:58;54233.38;;;-136.87
14666;BMP280;7420;53.574;10.040;2023-06-26T10:24:24;54235.41;;;-136.87
14666;BMP280;7420;53.574;10.040;2023-06-26T10:27:00;54245.63;;;-136.87
14666;BMP280;7420;53.574;10.040;2023-06-26T10:29:27;54247.66;;;-136.87
14666;BMP280;7420;53.574;10.040;2023-06-26T10:31:56;54247.66;;;-136.87
14666;BMP280;7420;53.574;10.040;2023-06-26T10:34:22;54241.53;;;-136.87
14666;BMP280;7420;53.574;10.040;2023-06-26T10:36:58;54243.59;;;-136.87
14666;BMP280;7420;53.574;10.040;2023-06-26T10:39:24;54245.63;;;-136.87
14666;BMP280;7420;53.574;10.040;2023-06-26T10:41:54;54245.63;;;-136.87
14666;BMP280;7420;53.574;10.040;2023-06-26T10:44:20;54241.53;;;-136.87
14666;BMP280;7420;53.574;10.040;2023-06-26T10:46:54;54239.50;;;-136.87
14666;BMP280;7420;53.574;10.040;2023-06-26T10:49:20;54239.50;;;-136.87
14666;BMP280;7420;53.574;10.040;2023-06-26T10:51:50;54241.53;;;-136.87
14666;BMP280;7420;53.574;10.040;2023-06-26T10:54:17;54241.53;;;-136.87
14666;BMP280;7420;53.574;10.040;2023-06-26T10:56:47;54239.50;;;-136.87
14666;BMP280;7420;53.574;10.040;2023-06-26T10:59:18;54241.53;;;-136.87
14666;BMP280;7420;53.574;10.040;2023-06-26T11:01:45;54239.50;;;-136.87
14666;BMP280;7420;53.574;10.040;2023-06-26T11:04:13;54239.50;;;-136.87
14666;BMP280;7420;53.574;10.040;2023-06-26T11:06:40;54241.53;;;-136.87
14666;BMP280;7420;53.574;10.040;2023-06-26T11:14:26;54245.63;;;-136.87
14666;BMP280;7420;53.574;10.040;2023-06-26T11:16:52;54245.63;;;-136.87
14666;BMP280;7420;53.574;10.040;2023-06-26T11:19:18;54245.63;;;-136.87
14666;BMP280;7420;53.574;10.040;2023-06-26T11:21:44;54245.63;;;-136.87
14666;BMP280;7420;53.574;10.040;2023-06-26T11:24:11;54245.63;;;-136.87
14666;BMP280;7420;53.574;10.040;2023-06-26T11:29:30;54247.66;;;-136.87
14666;BMP280;7420;53.574;10.040;2023-06-26T11:32:00;54245.63;;;-136.87
14666;BMP280;7420;53.574;10.040;2023-06-26T11:34:29;54241.53;;;-136.87
14666;BMP280;7420;53.574;10.040;2023-06-26T11:36:56;54245.63;;;-136.87
14666;BMP280;7420;53.574;10.040;2023-06-26T11:39:22;54243.59;;;-136.87
14666;BMP280;7420;53.574;10.040;2023-06-26T11:41:47;54243.59;;;-136.87
14666;BMP280;7420;53.574;10.040;2023-06-26T11:44:12;54245.63;;;-136.87
14666;BMP280;7420;53.574;10.040;2023-06-26T11:46:40;54243.59;;;-136.87
14666;BMP280;7420;53.574;10.040;2023-06-26T11:49:06;54245.63;;;-136.87
14666;BMP280;7420;53.574;10.040;2023-06-26T11:51:32;54245.63;;;-136.87
14666;BMP280;7420;53.574;10.040;2023-06-26T11:54:01;54245.63;;;-136.87
14666;BMP280;7420;53.574;10.040;2023-06-26T11:56:28;54245.63;;;-136.87
14666;BMP280;7420;53.574;10.040;2023-06-26T11:59:07;54245.63;;;-136.87
14666;BMP280;7420;53.574;10.040;2023-06-26T12:01:39;54247.66;;;-136.87
14666;BMP280;7420;53.574;10.040;2023-06-26T12:04:07;54245.63;;;-136.87
14666;BMP280;7420;53.574;10.040;2023-06-26T12:06:38;54245.63;;;-136.87
14666;BMP280;7420;53.574;10.040;2023-06-26T12:09:07;54245.63;;;-136.87
14666;BMP280;7420;53.574;10.040;2023-06-26T12:11:42;54245.63;;;-136.87
14666;BMP280;7420;53.574;10.040;2023-06-26T12:14:09;54243.59;;;-136.87
14666;BMP280;7420;53.574;10.040;2023-06-26T12:16:36;54241.53;;;-136.87
14666;BMP280;7420;53.574;10.040;2023-06-26T12:19:03;54245.63;;;-136.87
14666;BMP280;7420;53.574;10.040;2023-06-26T12:24:09;54243.59;;;-136.87
14666;BMP280;7420;53.574;10.040;2023-06-26T12:26:36;54245.63;;;-136.87
14666;BMP280;7420;53.574;10.040;2023-06-26T12:29:20;54241.53;;;-136.87
14666;BMP280;7420;53.574;10.040;2023-06-26T12:31:51;54241.53;;;-136.87
14666;BMP280;7420;53.574;10.040;2023-06-26T12:34:25;54241.53;;;-136.87
14666;BMP280;7420;53.574;10.040;2023-06-26T12:36:50;54243.59;;;-136.87
14666;BMP280;7420;53.574;10.040;2023-06-26T12:39:17;54241.53;;;-136.87
14666;BMP280;7420;53.574;10.040;2023-06-26T12:41:48;54237.44;;;-136.87
14666;BMP280;7420;53.574;10.040;2023-06-26T12:44:29;54243.59;;;-136.87
14666;BMP280;7420;53.574;10.040;2023-06-26T12:46:58;54245.63;;;-136.87
14666;BMP280;7420;53.574;10.040;2023-06-26T12:52:00;54237.44;;;-136.87
14666;BMP280;7420;53.574;10.040;2023-06-26T12:54:26;54231.31;;;-136.87
14666;BMP280;7420;53.574;10.040;2023-06-26T12:56:52;54237.44;;;-136.87
14666;BMP280;7420;53.574;10.040;2023-06-26T12:59:17;54241.53;;;-136.87
14666;BMP280;7420;53.574;10.040;2023-06-26T13:01:43;54237.44;;;-136.87
14666;BMP280;7420;53.574;10.040;2023-06-26T13:04:08;54239.50;;;-136.87
14666;BMP280;7420;53.574;10.040;2023-06-26T13:06:35;54241.53;;;-136.87
14666;BMP280;7420;53.574;10.040;2023-06-26T13:09:00;54241.53;;;-136.87
14666;BMP280;7420;53.574;10.040;2023-06-26T13:11:29;54237.44;;;-136.87
14666;BMP280;7420;53.574;10.040;2023-06-26T13:13:54;54241.53;;;-136.87
14666;BMP280;7420;53.574;10.040;2023-06-26T13:16:19;54239.50;;;-136.87
14666;BMP280;7420;53.574;10.040;2023-06-26T13:18:45;54235.41;;;-136.87
14666;BMP280;7420;53.574;10.040;2023-06-26T13:21:10;54235.41;;;-136.87
14666;BMP280;7420;53.574;10.040;2023-06-26T13:23:36;54237.44;;;-136.87
14666;BMP280;7420;53.574;10.040;2023-06-26T13:26:01;54235.41;;;-136.87
14666;BMP280;7420;53.574;10.040;2023-06-26T13:28:26;54237.44;;;-136.87
14666;BMP280;7420;53.574;10.040;2023-06-26T13:30:52;54243.59;;;-136.87
14666;BMP280;7420;53.574;10.040;2023-06-26T13:33:17;54243.59;;;-136.87
14666;BMP280;7420;53.574;10.040;2023-06-26T13:35:42;54239.50;;;-136.87
14666;BMP280;7420;53.574;10.040;2023-06-26T13:38:08;54239.50;;;-136.87
14666;BMP280;7420;53.574;10.040;2023-06-26T13:40:33;54245.63;;;-136.87
14666;BMP280;7420;53.574;10.040;2023-06-26T13:42:59;54241.53;;;-136.87
14666;BMP280;7420;53.574;10.040;2023-06-26T13:45:25;54239.50;;;-136.87
14666;BMP280;7420;53.574;10.040;2023-06-26T13:47:50;54239.50;;;-136.87
14666;BMP280;7420;53.574;10.040;2023-06-26T13:50:16;54237.44;;;-136.87
14666;BMP280;7420;53.574;10.040;2023-06-26T13:52:41;54239.50;;;-136.87
14666;BMP280;7420;53.574;10.040;2023-06-26T13:55:06;54237.44;;;-136.87
14666;BMP280;7420;53.574;10.040;2023-06-26T13:57:32;54233.38;;;-136.87
14666;BMP280;7420;53.574;10.040;2023-06-26T13:59:58;54235.41;;;-136.87
14666;BMP280;7420;53.574;10.040;2023-06-26T14:02:23;54239.50;;;-136.87
14666;BMP280;7420;53.574;10.040;2023-06-26T14:04:48;54241.53;;;-136.87
14666;BMP280;7420;53.574;10.040;2023-06-26T14:07:14;54235.41;;;-136.87
14666;BMP280;7420;53.574;10.040;2023-06-26T14:09:40;54229.28;;;-136.87